createdAt,value
2023-03-21T04:46:45.577Z,743.25
2023-03-21T04:49:12.352Z,741.78
2023-03-21T04:51:39.804Z,737.80
2023-03-21T04:54:06.711Z,749.17
2023-03-21T04:56:34.151Z,731.92
2023-03-21T04:59:07.075Z,743.72
2023-03-21T05:01:34.105Z,744.63
2023-03-21T05:04:02.213Z,747.75
2023-03-21T05:06:29.049Z,749.10
2023-03-21T05:09:00.093Z,747.03
2023-03-21T05:11:28.323Z,746.33
2023-03-21T05:13:54.999Z,743.85
2023-03-21T05:16:25.465Z,745.13
2023-03-21T05:18:55.498Z,740.13
2023-03-21T05:21:22.828Z,744.40
2023-03-21T05:23:54.845Z,743.28
2023-03-21T05:26:23.176Z,747.47
2023-03-21T05:28:50.473Z,736.75
2023-03-21T05:31:18.474Z,741.60
2023-03-21T05:33:45.864Z,747.08
2023-03-21T05:36:13.682Z,743.05
2023-03-21T05:38:45.397Z,742.67
2023-03-21T05:41:19.117Z,741.15
2023-03-21T05:43:45.923Z,733.30
2023-03-21T05:46:12.615Z,739.45
2023-03-21T05:48:39.325Z,734.40
2023-03-21T05:51:06.255Z,734.30
2023-03-21T05:53:32.872Z,735.15
2023-03-21T05:55:59.542Z,736.95
2023-03-21T05:58:26.266Z,734.15
2023-03-21T06:00:52.888Z,741.03
2023-03-21T06:03:19.518Z,747.47
2023-03-21T06:05:46.310Z,737.33
2023-03-21T06:08:13.038Z,736.85
2023-03-21T06:10:39.755Z,738.60
2023-03-21T06:13:06.400Z,734.40
2023-03-21T06:15:33.194Z,734.22
2023-03-21T06:17:59.854Z,737.33
2023-03-21T06:20:26.504Z,740.63
2023-03-21T06:22:53.149Z,740.07
2023-03-21T06:25:20.153Z,739.97
2023-03-21T06:27:46.763Z,739.58
2023-03-21T06:30:14.082Z,751.67
2023-03-21T06:32:40.689Z,744.23
2023-03-21T06:35:07.564Z,742.17
2023-03-21T06:37:34.272Z,747.33
2023-03-21T06:40:01.091Z,745.40
2023-03-21T06:42:27.767Z,752.67
2023-03-21T06:44:54.399Z,762.28
2023-03-21T06:47:21.040Z,755.53
2023-03-21T06:49:47.707Z,766.40
2023-03-21T06:52:14.335Z,776.95
2023-03-21T06:54:40.971Z,785.97
2023-03-21T06:57:07.736Z,777.15
2023-03-21T06:59:34.409Z,787.78
2023-03-21T07:02:01.281Z,800.72
2023-03-21T07:04:28.155Z,797.65
2023-03-21T07:06:54.854Z,802.05
2023-03-21T07:09:24.553Z,832.30
2023-03-21T07:11:53.479Z,837.90
2023-03-21T07:14:20.274Z,823.97
2023-03-21T07:16:47.065Z,846.15
2023-03-21T07:19:14.038Z,837.92
2023-03-21T07:21:40.802Z,841.58
2023-03-21T07:24:07.706Z,848.85
2023-03-21T07:26:34.346Z,853.42
2023-03-21T07:29:00.958Z,853.43
2023-03-21T07:31:27.685Z,860.90
2023-03-21T07:33:54.353Z,863.55
2023-03-21T07:36:21.306Z,872.38
2023-03-21T07:38:47.946Z,869.70
2023-03-21T07:43:46.469Z,881.58
2023-03-21T07:46:13.249Z,885.65
2023-03-21T07:48:39.930Z,891.15
2023-03-21T07:51:06.945Z,892.40
2023-03-21T07:53:33.700Z,898.40
2023-03-21T07:56:00.313Z,895.72
2023-03-21T07:58:28.405Z,903.05
2023-03-21T08:00:56.598Z,911.17
2023-03-21T08:03:24.048Z,929.70
2023-03-21T08:05:51.048Z,951.28
2023-03-21T08:08:17.998Z,974.55
2023-03-21T08:10:44.751Z,1001.80
2023-03-21T08:13:11.957Z,1022.35
2023-03-21T08:15:42.303Z,1033.47
2023-03-21T08:18:10.126Z,1061.63
2023-03-21T08:20:37.332Z,1079.55
2023-03-21T08:23:04.244Z,1089.45
2023-03-21T08:25:31.370Z,1104.80
2023-03-21T08:27:58.043Z,1124.40
2023-03-21T08:30:28.073Z,1131.13
2023-03-21T08:33:01.364Z,1141.15
2023-03-21T08:35:29.443Z,1142.65
2023-03-21T08:37:56.101Z,1161.35
2023-03-21T08:40:22.763Z,1172.80
2023-03-21T08:42:49.515Z,1178.43
2023-03-21T08:45:17.615Z,1189.22
2023-03-21T08:47:44.465Z,1203.47
2023-03-21T08:50:14.572Z,1206.78
2023-03-21T08:52:41.457Z,1210.68
2023-03-21T08:55:09.108Z,1202.00
2023-03-21T08:57:36.080Z,1207.55
2023-03-21T09:00:12.126Z,1196.88
2023-03-21T09:02:39.161Z,1190.05
2023-03-21T09:05:07.596Z,1197.40
2023-03-21T09:07:37.525Z,1193.30
2023-03-21T09:10:20.225Z,1189.63
2023-03-21T09:12:48.525Z,1181.68
2023-03-21T09:15:15.230Z,1170.80
2023-03-21T09:17:48.975Z,1157.45
2023-03-21T09:20:18.737Z,1128.30
2023-03-21T09:22:50.318Z,1113.95
2023-03-21T09:25:17.742Z,1094.60
2023-03-21T09:27:45.818Z,1084.38
2023-03-21T09:30:17.141Z,1066.63
2023-03-21T09:32:48.233Z,1062.00
2023-03-21T09:35:19.107Z,1053.75
2023-03-21T09:37:47.244Z,1062.47
2023-03-21T09:40:52.976Z,1052.00
2023-03-21T09:43:42.106Z,1064.15
2023-03-21T09:46:25.082Z,1060.73
2023-03-21T09:49:09.756Z,1080.18
2023-03-21T09:51:46.295Z,1075.88
2023-03-21T09:54:21.283Z,1092.13
2023-03-21T09:56:50.759Z,1095.70
2023-03-21T09:59:40.142Z,1100.40
2023-03-21T10:02:32.111Z,1114.47
2023-03-21T10:05:11.916Z,1104.63
2023-03-21T10:07:42.767Z,1105.22
2023-03-21T10:10:17.940Z,1095.07
2023-03-21T10:12:47.137Z,1091.80
2023-03-21T10:15:20.518Z,1094.77
2023-03-21T10:18:05.536Z,1078.80
2023-03-21T10:20:34.682Z,1079.55
2023-03-21T10:23:05.256Z,1066.38
2023-03-21T10:25:40.293Z,1059.83
2023-03-21T10:28:14.974Z,1051.40
2023-03-21T10:31:04.513Z,1044.65
2023-03-21T10:33:37.641Z,1035.35
2023-03-21T10:36:16.315Z,1037.18
2023-03-21T10:39:14.910Z,1036.10
2023-03-21T10:41:41.760Z,1038.28
2023-03-21T10:44:14.901Z,1040.63
2023-03-21T10:46:59.223Z,1037.70
2023-03-21T10:49:26.667Z,1040.10
2023-03-21T10:51:57.862Z,1035.97
2023-03-21T10:54:29.894Z,1038.50
2023-03-21T10:57:05.807Z,1044.67
2023-03-21T10:59:40.495Z,1037.68
2023-03-21T11:02:14.533Z,1043.18
2023-03-21T11:04:43.640Z,1052.10
2023-03-21T11:07:14.321Z,1050.70
2023-03-21T11:09:48.237Z,1050.60
2023-03-21T11:12:17.771Z,1055.00
2023-03-21T11:14:49.158Z,1048.72
2023-03-21T11:17:18.511Z,1048.63
2023-03-21T11:20:11.262Z,1042.37
2023-03-21T11:22:42.230Z,1037.13
2023-03-21T11:25:19.774Z,1036.95
2023-03-21T11:27:54.873Z,1033.15
2023-03-21T11:30:24.882Z,1043.97
2023-03-21T11:32:55.560Z,1044.85
2023-03-21T11:35:25.346Z,1043.38
2023-03-21T11:37:54.716Z,1045.85
2023-03-21T11:40:26.045Z,1050.40
2023-03-21T11:43:24.442Z,1050.88
2023-03-21T11:46:24.353Z,1051.78
2023-03-21T11:48:51.295Z,1045.78
2023-03-21T11:51:44.893Z,1042.13
2023-03-21T11:54:30.372Z,1046.20
2023-03-21T11:57:07.675Z,1041.57
2023-03-21T11:59:42.413Z,1045.28
2023-03-21T12:02:43.497Z,1042.28
2023-03-21T12:05:32.377Z,1047.43
2023-03-21T12:08:17.697Z,1047.22
2023-03-21T12:11:16.538Z,1046.47
2023-03-21T12:13:51.376Z,1047.22
2023-03-21T12:16:54.718Z,1049.53
2023-03-21T12:19:30.282Z,1048.93
2023-03-21T12:22:24.973Z,1048.82
2023-03-21T12:24:56.803Z,1050.75
2023-03-21T12:27:37.521Z,1056.43
2023-03-21T12:30:18.793Z,1054.85
2023-03-21T12:33:05.777Z,1058.07
2023-03-21T12:36:05.279Z,1060.20
2023-03-21T12:39:01.759Z,1065.60
2023-03-21T12:41:54.484Z,1061.97
2023-03-21T12:44:24.271Z,1070.75
2023-03-21T12:47:02.286Z,1068.15
2023-03-21T12:49:38.488Z,1064.07
2023-03-21T12:52:11.977Z,1062.53
2023-03-21T12:54:49.325Z,1061.93
2023-03-21T12:57:38.305Z,1064.10
2023-03-21T13:00:22.799Z,1059.28
2023-03-21T13:02:55.433Z,1059.57
2023-03-21T13:05:45.044Z,1057.85
2023-03-21T13:08:18.221Z,1054.90
2023-03-21T13:10:46.224Z,1051.72
2023-03-21T13:13:36.540Z,1053.88
2023-03-21T13:16:20.187Z,1047.15
2023-03-21T13:19:16.110Z,1048.93
2023-03-21T13:21:52.382Z,1060.18
2023-03-21T13:24:27.193Z,1060.55
2023-03-21T13:27:16.430Z,1060.93
2023-03-21T13:29:49.496Z,1060.85
2023-03-21T13:32:39.571Z,1057.78
2023-03-21T13:35:09.748Z,1057.70
2023-03-21T13:37:42.135Z,1057.30
2023-03-21T13:40:25.954Z,1062.82
2023-03-21T13:43:00.498Z,1055.72
2023-03-21T13:45:45.178Z,1051.95
2023-03-21T13:48:32.140Z,1051.30
2023-03-21T13:51:03.433Z,1057.80
2023-03-21T13:53:32.099Z,1053.63
2023-03-21T13:56:06.612Z,1050.78
2023-03-21T13:58:37.639Z,1054.63
2023-03-21T14:01:21.218Z,1051.07
2023-03-21T14:03:48.226Z,1052.28
2023-03-21T14:06:18.152Z,1050.32
2023-03-21T14:08:47.344Z,1053.68
2023-03-21T14:11:17.689Z,1052.05
2023-03-21T14:13:51.406Z,1049.80
2023-03-21T14:16:20.382Z,1054.57
2023-03-21T14:18:59.885Z,1057.43
2023-03-21T14:21:31.152Z,1044.80
2023-03-21T14:23:57.990Z,1046.82
2023-03-21T14:26:27.417Z,1046.85
2023-03-21T14:28:54.727Z,1040.18
2023-03-21T14:31:21.685Z,1045.90
2023-03-21T14:33:54.005Z,1043.25
2023-03-21T14:36:28.551Z,1037.07
2023-03-21T14:39:17.365Z,1027.53
2023-03-21T14:41:52.673Z,1029.25
2023-03-21T14:44:27.782Z,1029.00
2023-03-21T14:47:03.909Z,1023.47
2023-03-21T14:49:32.962Z,1027.43
2023-03-21T14:52:07.411Z,1028.35
2023-03-21T14:54:34.494Z,1020.05
2023-03-21T14:57:04.765Z,1014.55
2023-03-21T14:59:35.428Z,1016.25
2023-03-21T15:02:11.906Z,1014.13
2023-03-21T15:04:38.696Z,1013.42
2023-03-21T15:07:07.728Z,1012.17
2023-03-21T15:09:35.629Z,1017.97
2023-03-21T15:12:08.543Z,1017.35
2023-03-21T15:14:36.672Z,1021.63
2023-03-21T15:17:05.875Z,1018.65
2023-03-21T15:19:35.435Z,1027.80
2023-03-21T15:22:12.932Z,1017.85
2023-03-21T15:24:45.122Z,1025.47
2023-03-21T15:27:18.579Z,1023.13
2023-03-21T15:29:46.530Z,1026.47
2023-03-21T15:32:17.519Z,1027.95
2023-03-21T15:34:44.732Z,1027.80
2023-03-21T15:37:33.426Z,1033.30
2023-03-21T15:40:30.971Z,1028.75
2023-03-21T15:43:20.317Z,1018.65
2023-03-21T15:45:56.617Z,1018.03
2023-03-21T15:48:28.633Z,1018.10
2023-03-21T15:51:03.390Z,1016.90
2023-03-21T15:53:33.639Z,1009.97
2023-03-21T15:56:02.006Z,1014.92
2023-03-21T15:58:35.941Z,1013.05
2023-03-21T16:01:06.532Z,1022.03
2023-03-21T16:03:38.121Z,1016.28
2023-03-21T16:06:17.260Z,1022.15
2023-03-21T16:08:50.435Z,1019.47
2023-03-21T16:11:25.452Z,1021.88
2023-03-21T16:13:53.523Z,1018.00
2023-03-21T16:16:26.432Z,1019.65
2023-03-21T16:18:54.870Z,1020.85
2023-03-21T16:21:24.080Z,1021.63
2023-03-21T16:23:51.057Z,1027.40
2023-03-21T16:26:21.649Z,1025.45
2023-03-21T16:28:49.293Z,1025.90
2023-03-21T16:31:19.160Z,1015.17
2023-03-21T16:33:46.437Z,1017.83
2023-03-21T16:36:30.665Z,1021.55
2023-03-21T16:38:58.140Z,1022.83
2023-03-21T16:41:27.158Z,1012.03
2023-03-21T16:43:53.899Z,1022.67
2023-03-21T16:46:26.192Z,1012.80
2023-03-21T16:48:57.731Z,1013.17
2023-03-21T16:51:30.456Z,1020.08
2023-03-21T16:53:57.841Z,1022.90
2023-03-21T16:56:31.952Z,1015.67
2023-03-21T16:58:58.873Z,1002.05
2023-03-21T17:01:25.920Z,1007.75
2023-03-21T17:03:53.543Z,1003.33
2023-03-21T17:06:24.207Z,1002.83
2023-03-21T17:08:51.578Z,1002.95
2023-03-21T17:11:20.697Z,1002.40
2023-03-21T17:13:48.812Z,997.45
2023-03-21T17:16:18.389Z,994.53
2023-03-21T17:18:45.107Z,990.67
2023-03-21T17:21:26.553Z,995.25
2023-03-21T17:23:54.196Z,989.78
2023-03-21T17:26:27.395Z,989.42
2023-03-21T17:28:56.663Z,990.22
2023-03-21T17:31:25.252Z,983.30
2023-03-21T17:33:52.075Z,982.45
2023-03-21T17:36:30.167Z,981.53
2023-03-21T17:38:57.835Z,977.15
2023-03-21T17:41:24.887Z,968.50
2023-03-21T17:43:51.696Z,963.70
2023-03-21T17:46:22.921Z,963.63
2023-03-21T17:48:50.261Z,964.80
2023-03-21T17:51:17.671Z,964.88
2023-03-21T17:53:45.662Z,950.78
2023-03-21T17:56:32.130Z,964.53
2023-03-21T17:59:05.288Z,959.30
2023-03-21T18:01:32.027Z,961.22
2023-03-21T18:04:02.072Z,962.25
2023-03-21T18:06:28.767Z,953.15
2023-03-21T18:08:55.521Z,954.00
2023-03-21T18:11:24.379Z,953.55
2023-03-21T18:13:59.450Z,960.35
2023-03-21T18:16:33.422Z,961.13
2023-03-21T18:19:00.185Z,955.67
2023-03-21T18:21:32.141Z,960.28
2023-03-21T18:23:59.423Z,962.42
2023-03-21T18:26:26.142Z,962.15
2023-03-21T18:29:36.632Z,960.58
2023-03-21T18:31:40.253Z,962.22
2023-03-21T18:34:06.961Z,958.40
2023-03-21T18:36:34.093Z,954.72
2023-03-21T18:39:03.233Z,950.55
2023-03-21T18:41:30.531Z,952.28
2023-03-21T18:44:02.778Z,955.92
2023-03-21T18:46:47.059Z,956.85
2023-03-21T18:52:04.590Z,956.30
2023-03-21T18:54:31.395Z,953.63
2023-03-21T18:57:33.737Z,955.88
2023-03-21T18:59:45.193Z,952.00
2023-03-21T19:02:13.866Z,955.63
2023-03-21T19:04:40.870Z,956.10
2023-03-21T19:07:08.497Z,954.28
2023-03-21T19:09:58.102Z,954.42
2023-03-21T19:12:23.612Z,957.53
2023-03-21T19:14:50.358Z,954.38
2023-03-21T19:18:14.363Z,954.55
2023-03-21T19:20:05.587Z,957.47
2023-03-21T19:22:32.206Z,951.15
2023-03-21T19:24:58.861Z,951.38
2023-03-21T19:27:25.782Z,945.55
2023-03-21T19:30:10.919Z,950.15
2023-03-21T19:32:40.575Z,949.10
2023-03-21T19:35:07.500Z,951.40
2023-03-21T19:37:36.226Z,951.42
2023-03-21T19:40:05.518Z,947.88
2023-03-21T19:42:32.525Z,946.80
2023-03-21T19:44:59.361Z,946.40
2023-03-21T19:47:26.279Z,960.85
2023-03-21T19:52:40.950Z,954.88
2023-03-21T19:55:08.327Z,952.27
2023-03-21T19:57:35.319Z,952.80
2023-03-21T20:00:02.278Z,957.08
2023-03-21T20:02:37.127Z,952.15
2023-03-21T20:05:06.653Z,941.67
2023-03-21T20:07:33.479Z,945.03
2023-03-21T20:10:00.609Z,938.80
2023-03-21T20:12:27.534Z,947.45
2023-03-21T20:15:07.000Z,944.88
2023-03-21T20:17:41.865Z,944.03
2023-03-21T20:20:10.127Z,952.67
2023-03-21T20:23:05.112Z,929.00
2023-03-21T20:25:23.567Z,938.37
2023-03-21T20:28:07.314Z,931.83
2023-03-21T20:30:37.157Z,927.10
2023-03-21T20:33:04.305Z,928.83
2023-03-21T20:36:16.485Z,918.92
2023-03-21T20:38:20.443Z,918.33
2023-03-21T20:40:47.967Z,915.40
2023-03-21T20:44:02.196Z,915.30
2023-03-21T20:46:03.923Z,916.60
2023-03-21T20:48:31.056Z,914.43
2023-03-21T20:51:25.056Z,923.78
2023-03-21T20:53:48.927Z,925.90
2023-03-21T20:56:15.881Z,925.95
2023-03-21T20:59:04.582Z,911.83
2023-03-21T21:01:29.213Z,925.03
2023-03-21T21:03:57.510Z,919.10
2023-03-21T21:06:24.451Z,919.60
2023-03-21T21:08:51.315Z,912.37
2023-03-21T21:12:02.965Z,928.17
2023-03-21T21:14:05.451Z,919.95
2023-03-21T21:16:32.748Z,914.05
2023-03-21T21:18:59.455Z,928.03
2023-03-21T21:21:27.658Z,915.97
2023-03-21T21:23:54.355Z,912.72
2023-03-21T21:26:21.006Z,908.13
2023-03-21T21:28:47.805Z,906.25
2023-03-21T21:31:16.787Z,908.53
2023-03-21T21:33:49.994Z,906.53
2023-03-21T21:36:17.289Z,907.40
2023-03-21T21:38:43.980Z,912.92
2023-03-21T21:41:17.619Z,915.78
2023-03-21T21:43:44.241Z,909.08
2023-03-21T21:46:11.523Z,911.38
2023-03-21T21:48:40.017Z,905.42
2023-03-21T21:51:07.157Z,905.65
2023-03-21T21:53:33.754Z,911.53
2023-03-21T21:56:03.564Z,907.40
2023-03-21T21:58:33.614Z,908.13
2023-03-21T22:01:01.853Z,908.20
2023-03-21T22:03:36.397Z,903.78
2023-03-21T22:06:04.570Z,898.40
2023-03-21T22:08:31.470Z,895.03
2023-03-21T22:11:00.635Z,906.10
2023-03-21T22:13:27.745Z,897.55
2023-03-21T22:15:55.327Z,899.90
2023-03-21T22:18:22.631Z,890.22
2023-03-21T22:20:51.104Z,899.95
2023-03-21T22:23:19.331Z,893.20
2023-03-21T22:25:51.286Z,897.72
2023-03-21T22:28:21.993Z,897.65
2023-03-21T22:30:48.875Z,894.15
2023-03-21T22:33:15.695Z,905.22
2023-03-21T22:35:42.387Z,900.25
2023-03-21T22:38:09.106Z,892.23
2023-03-21T22:40:35.851Z,904.10
2023-03-21T22:43:02.821Z,900.65
2023-03-21T22:45:29.561Z,892.78
2023-03-21T22:47:56.313Z,901.23
2023-03-21T22:50:22.957Z,898.22
2023-03-21T22:52:49.617Z,906.88
2023-03-21T22:55:16.351Z,902.08
2023-03-21T22:57:50.867Z,908.58
2023-03-21T23:00:18.384Z,905.60
2023-03-21T23:02:45.262Z,900.08
2023-03-21T23:05:12.095Z,901.42
2023-03-21T23:07:38.812Z,902.87
2023-03-21T23:10:07.669Z,902.65
2023-03-21T23:12:34.549Z,903.75
2023-03-21T23:15:02.342Z,904.65
2023-03-21T23:17:29.286Z,904.30
2023-03-21T23:19:56.186Z,901.65
2023-03-21T23:22:22.836Z,902.20
2023-03-21T23:24:49.598Z,901.97
2023-03-21T23:27:18.048Z,900.70
2023-03-21T23:29:45.328Z,907.13
2023-03-21T23:32:11.980Z,903.78
2023-03-21T23:34:38.608Z,898.78
2023-03-21T23:37:06.749Z,905.20
2023-03-21T23:39:33.768Z,899.67
2023-03-21T23:42:00.799Z,904.25
2023-03-21T23:44:27.642Z,901.83
2023-03-21T23:46:54.680Z,902.50
2023-03-21T23:49:21.374Z,897.55
2023-03-21T23:51:48.046Z,894.90
2023-03-21T23:54:14.923Z,894.58
2023-03-21T23:56:42.047Z,897.67
2023-03-21T23:59:08.892Z,887.00
